Time;durP1;ratioP1;P1;durP2;ratioP2;P2;SDS_P1;SDS_P2;PMS_P1;PMS_P2;Temp;Humidity;BMP_temperature;BMP_pressure;BME280_temperature;BME280_humidity;BME280_pressure;Samples;Min_cycle;Max_cycle;Signal;HPM_P1;HPM_P2
2024/04/08 09:16:00;;;;;;;12.02;5.13;;;15.00;86.40;;;;;;6221529;23;19915;-76
2024/04/08 09:18:28;;;;;;;6.95;4.25;;;15.10;86.70;;;;;;6176700;23;20023;-75
2024/04/08 09:20:55;;;;;;;9.40;4.70;;;15.20;86.60;;;;;;6147374;23;20044;-75
2024/04/08 09:23:20;;;;;;;8.38;4.50;;;15.30;86.50;;;;;;6165392;23;20016;-75
2024/04/08 09:25:46;;;;;;;8.40;4.35;;;15.40;86.40;;;;;;6189232;23;20031;-76
2024/04/08 09:28:12;;;;;;;10.43;4.63;;;15.50;86.30;;;;;;6189097;23;20021;-75
2024/04/08 09:30:39;;;;;;;8.75;3.97;;;15.60;85.80;;;;;;6188774;23;20016;-74
2024/04/08 09:33:13;;;;;;;7.10;4.13;;;15.80;85.50;;;;;;6190300;23;20417;-75
2024/04/08 10:52:20;;;;;;;7.45;2.88;;;18.10;81.20;;;;;;6242621;22;20031;-78
2024/04/08 10:54:46;;;;;;;6.15;3.28;;;18.00;82.50;;;;;;6243818;23;20027;-78
2024/04/08 10:57:12;;;;;;;6.75;3.70;;;18.10;82.80;;;;;;6242834;23;20074;-76
2024/04/08 10:59:38;;;;;;;5.75;3.30;;;18.10;82.30;;;;;;6216278;23;20496;-73
2024/04/08 11:02:12;;;;;;;6.43;3.50;;;18.30;82.30;;;;;;6215147;23;20016;-71
2024/04/08 11:04:38;;;;;;;7.35;3.22;;;18.40;82.00;;;;;;6216269;23;20024;-69
2024/04/08 11:07:04;;;;;;;6.53;3.22;;;18.20;79.40;;;;;;6213235;23;20024;-69
2024/04/08 11:09:29;;;;;;;6.88;2.92;;;18.20;80.40;;;;;;6209227;23;20016;-69
2024/04/08 11:11:55;;;;;;;5.85;3.00;;;18.30;80.30;;;;;;6214399;23;20016;-69
2024/04/08 11:14:21;;;;;;;6.15;3.00;;;18.40;80.00;;;;;;6214306;23;20020;-69
2024/04/08 11:16:47;;;;;;;5.28;2.30;;;18.60;81.30;;;;;;6242542;23;20012;-69
2024/04/08 11:19:12;;;;;;;4.93;2.50;;;18.60;81.20;;;;;;6214929;23;20031;-68
2024/04/08 11:21:38;;;;;;;5.63;2.40;;;18.70;81.10;;;;;;6214165;23;20020;-68
2024/04/08 11:24:04;;;;;;;5.00;2.88;;;18.80;80.80;;;;;;6242897;23;20066;-68
2024/04/08 11:26:30;;;;;;;5.68;2.60;;;18.90;79.10;;;;;;6241570;23;20030;-68
2024/04/08 11:29:00;;;;;;;4.55;2.50;;;19.00;80.30;;;;;;6242804;23;20031;-68
2024/04/08 11:31:26;;;;;;;7.70;3.05;;;19.00;78.60;;;;;;6215717;23;20016;-68
2024/04/08 11:33:51;;;;;;;6.43;2.88;;;19.30;79.10;;;;;;6215856;23;20073;-68
2024/04/08 11:36:18;;;;;;;5.38;2.97;;;19.50;78.00;;;;;;6243135;23;20464;-68
2024/04/08 11:38:43;;;;;;;8.55;2.47;;;19.70;79.40;;;;;;6214920;23;20061;-68
2024/04/08 11:41:09;;;;;;;7.15;2.40;;;19.80;80.10;;;;;;6215865;23;20096;-68
2024/04/08 11:43:35;;;;;;;5.68;2.25;;;19.80;80.20;;;;;;6215360;23;20027;-68
2024/04/08 11:46:01;;;;;;;4.00;2.30;;;19.60;80.10;;;;;;6242970;23;20441;-68
2024/04/08 11:48:26;;;;;;;6.40;2.50;;;19.50;80.00;;;;;;6242810;23;20016;-68
2024/04/08 11:50:52;;;;;;;6.00;2.25;;;19.30;80.30;;;;;;6209715;23;20020;-68
2024/04/08 11:53:18;;;;;;;5.97;2.50;;;19.10;80.20;;;;;;6236550;23;20074;-68
2024/04/08 11:55:44;;;;;;;4.68;2.38;;;19.10;80.30;;;;;;6214959;23;20048;-69
2024/04/08 11:58:10;;;;;;;4.80;2.50;;;19.10;79.90;;;;;;6215796;23;20008;-68
2024/04/08 12:00:36;;;;;;;6.80;2.70;;;19.10;79.50;;;;;;6243192;23;20091;-68
2024/04/08 12:03:02;;;;;;;5.72;2.20;;;19.20;79.70;;;;;;6241725;23;20031;-69
2024/04/08 12:05:28;;;;;;;3.22;1.92;;;19.30;80.60;;;;;;6241638;23;20016;-68
2024/04/08 12:07:54;;;;;;;7.15;2.15;;;19.10;79.50;;;;;;6239571;23;20467;-68
2024/04/08 12:10:20;;;;;;;6.13;2.22;;;19.00;80.30;;;;;;6214933;23;20400;-68
2024/04/08 12:12:45;;;;;;;5.65;2.20;;;19.10;79.90;;;;;;6241773;23;20027;-69
2024/04/08 12:15:12;;;;;;;8.45;2.20;;;19.20;80.30;;;;;;6215523;23;20020;-68
2024/04/08 12:17:38;;;;;;;6.72;2.55;;;19.40;80.50;;;;;;6241564;23;20388;-69
2024/04/08 12:20:04;;;;;;;7.38;2.47;;;19.50;79.80;;;;;;6241925;23;20065;-69
2024/04/08 12:22:30;;;;;;;5.00;2.35;;;19.50;80.30;;;;;;6190615;23;20297;-68
2024/04/08 12:24:56;;;;;;;5.07;2.50;;;19.10;77.30;;;;;;6242030;23;20102;-69
2024/04/08 12:27:27;;;;;;;4.78;2.20;;;19.20;79.40;;;;;;6213182;23;20023;-69
2024/04/08 12:29:53;;;;;;;7.15;2.65;;;19.30;78.40;;;;;;6215310;23;20023;-68
2024/04/08 12:32:19;;;;;;;6.53;2.40;;;19.40;78.00;;;;;;6215547;23;20066;-68
2024/04/08 12:34:45;;;;;;;6.78;2.47;;;19.50;78.90;;;;;;6242079;23;20515;-68
2024/04/08 12:37:11;;;;;;;5.10;2.70;;;19.40;79.10;;;;;;6215353;23;20024;-69
2024/04/08 12:39:38;;;;;;;5.43;2.60;;;19.20;78.30;;;;;;6241816;23;20400;-69
2024/04/08 12:42:05;;;;;;;4.85;2.40;;;18.90;78.90;;;;;;6214387;23;20024;-69
2024/04/08 12:44:31;;;;;;;5.90;2.10;;;18.70;78.00;;;;;;6215582;23;20511;-69
2024/04/08 12:46:58;;;;;;;5.30;2.13;;;18.50;78.20;;;;;;6212694;23;20065;-69
2024/04/08 12:49:27;;;;;;;4.78;1.80;;;18.30;78.90;;;;;;6214615;23;20023;-68
2024/04/08 12:51:53;;;;;;;5.10;2.00;;;18.10;78.40;;;;;;6214805;23;20042;-68
2024/04/08 12:54:19;;;;;;;8.02;2.20;;;18.10;78.80;;;;;;6165326;23;20090;-69
2024/04/08 12:56:45;;;;;;;9.75;2.70;;;18.10;79.40;;;;;;6189771;23;20525;-69
2024/04/08 12:59:10;;;;;;;5.60;2.38;;;18.10;79.90;;;;;;6215096;23;20047;-69
2024/04/08 13:01:36;;;;;;;7.05;2.35;;;18.20;79.80;;;;;;6241528;23;20016;-69
2024/04/08 13:04:03;;;;;;;6.97;2.20;;;18.20;79.80;;;;;;6241721;23;20461;-68
2024/04/08 13:06:28;;;;;;;5.45;2.30;;;18.20;79.60;;;;;;6241498;23;20341;-68
2024/04/08 13:08:54;;;;;;;3.75;1.95;;;18.10;79.80;;;;;;6214902;23;20023;-69
2024/04/08 13:11:20;;;;;;;8.13;2.65;;;18.10;79.30;;;;;;6242339;23;20051;-69
2024/04/08 13:13:45;;;;;;;4.78;2.30;;;18.00;79.20;;;;;;6242468;23;20008;-69
2024/04/08 13:16:11;;;;;;;6.25;2.38;;;18.00;78.90;;;;;;6215688;23;20027;-69
2024/04/08 13:18:42;;;;;;;6.15;2.45;;;18.10;79.20;;;;;;6215656;23;20028;-69
2024/04/08 13:21:08;;;;;;;6.15;2.88;;;18.10;79.40;;;;;;6241697;23;20011;-69
2024/04/08 13:23:34;;;;;;;8.25;3.17;;;18.10;79.40;;;;;;6215794;23;20020;-69
2024/04/08 13:26:00;;;;;;;7.47;3.03;;;18.00;79.90;;;;;;6190199;23;20026;-69
2024/04/08 13:28:25;;;;;;;9.25;3.55;;;18.00;79.70;;;;;;6215732;23;20023;-69
2024/04/08 13:30:51;;;;;;;8.40;3.60;;;18.00;79.80;;;;;;6214961;23;20043;-69
2024/04/08 13:33:17;;;;;;;7.80;4.13;;;18.00;80.20;;;;;;6242592;23;20088;-69
2024/04/08 13:35:43;;;;;;;9.45;4.55;;;17.90;79.90;;;;;;6214443;23;20027;-70
2024/04/08 13:38:08;;;;;;;8.70;5.50;;;17.70;80.00;;;;;;6242239;23;20016;-69
2024/04/08 13:40:34;;;;;;;9.57;6.28;;;17.70;80.60;;;;;;6242123;23;20027;-69
2024/04/08 13:43:00;;;;;;;8.98;5.47;;;17.50;80.20;;;;;;6242230;23;20129;-69
2024/04/08 13:45:26;;;;;;;11.38;5.53;;;17.50;80.70;;;;;;6217078;23;20016;-69
2024/04/08 13:47:52;;;;;;;7.68;4.95;;;17.50;80.90;;;;;;6192696;23;20519;-69
2024/04/08 13:50:18;;;;;;;8.27;4.78;;;17.60;80.80;;;;;;6191657;23;20020;-69
2024/04/08 13:52:43;;;;;;;11.23;6.40;;;17.60;80.40;;;;;;6217336;23;20018;-69
2024/04/08 13:55:09;;;;;;;9.10;5.70;;;17.60;80.60;;;;;;6217301;23;20016;-69
2024/04/08 13:57:36;;;;;;;10.85;5.65;;;17.60;80.40;;;;;;6243744;23;20020;-70
2024/04/08 14:00:05;;;;;;;9.55;5.28;;;17.50;80.40;;;;;;6192201;23;20054;-69
2024/04/08 14:02:30;;;;;;;11.23;6.45;;;17.60;80.80;;;;;;6243699;23;20012;-70
2024/04/08 14:04:56;;;;;;;9.52;5.40;;;17.50;81.70;;;;;;6215866;23;20354;-69
2024/04/08 14:07:22;;;;;;;8.70;4.47;;;17.60;81.30;;;;;;6216521;23;20047;-69
2024/04/08 14:09:47;;;;;;;10.80;5.10;;;17.50;80.50;;;;;;6191840;23;20483;-69
2024/04/08 14:12:13;;;;;;;10.02;5.25;;;17.50;80.30;;;;;;6216607;23;20035;-69
2024/04/08 14:14:39;;;;;;;10.77;5.32;;;17.50;80.70;;;;;;6216074;23;20024;-70
2024/04/08 14:17:05;;;;;;;10.10;5.53;;;17.40;80.90;;;;;;6242786;23;20078;-69
2024/04/08 14:19:31;;;;;;;13.32;5.57;;;17.40;81.30;;;;;;6243079;23;20028;-69
2024/04/08 14:21:56;;;;;;;9.93;5.28;;;17.50;81.00;;;;;;6215998;23;20081;-70
2024/04/08 14:24:22;;;;;;;12.27;5.00;;;17.50;81.40;;;;;;6243774;23;20449;-70
2024/04/08 14:26:48;;;;;;;14.32;5.43;;;17.70;81.50;;;;;;6216419;23;20476;-69
2024/04/08 14:29:13;;;;;;;9.02;5.20;;;17.70;81.20;;;;;;6214230;23;20020;-69
2024/04/08 14:31:39;;;;;;;9.57;5.53;;;17.70;81.30;;;;;;6216717;23;20079;-69
2024/04/08 14:34:05;;;;;;;11.70;5.95;;;17.80;81.60;;;;;;6243486;23;20039;-70
2024/04/08 14:36:30;;;;;;;11.38;5.60;;;17.80;81.00;;;;;;6215248;23;20042;-69
2024/04/08 14:38:56;;;;;;;8.70;5.68;;;17.80;81.10;;;;;;6243424;23;20461;-69
2024/04/08 14:41:24;;;;;;;9.02;5.97;;;17.80;81.00;;;;;;6191644;23;20026;-69
2024/04/08 14:43:50;;;;;;;10.63;6.60;;;17.80;81.10;;;;;;6216900;23;20020;-69
2024/04/08 14:46:16;;;;;;;13.75;6.43;;;17.90;81.50;;;;;;6215568;23;20503;-69
2024/04/08 14:48:42;;;;;;;28.35;7.13;;;17.90;81.50;;;;;;6216852;23;20016;-70
2024/04/08 14:51:07;;;;;;;13.20;6.68;;;17.90;81.80;;;;;;6214405;23;20027;-70
2024/04/08 14:53:33;;;;;;;13.82;6.38;;;17.80;81.40;;;;;;6191053;23;20020;-69
2024/04/08 14:55:59;;;;;;;13.20;6.75;;;17.80;81.30;;;;;;6215422;23;20456;-69
2024/04/08 14:58:24;;;;;;;12.88;6.80;;;17.70;81.00;;;;;;6216241;23;20510;-70
2024/04/08 15:00:55;;;;;;;11.43;7.05;;;17.70;81.30;;;;;;6215662;23;20020;-70
2024/04/08 15:03:20;;;;;;;16.23;8.48;;;17.60;81.30;;;;;;6215992;23;20012;-69
2024/04/08 15:05:46;;;;;;;13.98;8.10;;;17.60;81.50;;;;;;6216397;23;20043;-69
2024/04/08 15:08:16;;;;;;;11.82;8.05;;;17.70;81.70;;;;;;6213543;23;20071;-69
2024/04/08 15:10:43;;;;;;;13.50;7.57;;;17.70;81.60;;;;;;6243658;23;20523;-69
2024/04/08 15:13:09;;;;;;;12.27;7.63;;;17.80;81.40;;;;;;6214860;23;20035;-69
2024/04/08 15:15:34;;;;;;;14.98;8.20;;;17.80;81.40;;;;;;6216045;23;20031;-68
2024/04/08 15:18:00;;;;;;;13.40;8.57;;;17.80;81.50;;;;;;6240316;23;20026;-69
2024/04/08 15:20:27;;;;;;;10.30;7.72;;;17.80;81.30;;;;;;6177477;23;20391;-68
2024/04/08 15:22:53;;;;;;;15.95;7.90;;;17.70;81.60;;;;;;6206054;23;20028;-68
2024/04/08 15:25:18;;;;;;;14.80;8.43;;;17.80;81.70;;;;;;6204875;23;20077;-69
2024/04/08 15:27:44;;;;;;;13.38;8.40;;;17.80;82.10;;;;;;6203934;23;20079;-69
2024/04/08 15:30:10;;;;;;;12.45;8.23;;;17.80;81.60;;;;;;6231375;23;20024;-69
2024/04/08 15:32:36;;;;;;;14.15;8.52;;;18.00;81.40;;;;;;6203544;23;20099;-69
2024/04/08 15:35:02;;;;;;;15.25;8.38;;;18.20;81.60;;;;;;6203155;23;20653;-70
2024/04/08 15:37:28;;;;;;;13.98;8.35;;;18.20;80.80;;;;;;6152227;23;20471;-70
2024/04/08 15:39:54;;;;;;;15.52;7.80;;;18.30;81.50;;;;;;6202465;23;20035;-69
2024/04/08 15:42:19;;;;;;;11.77;7.68;;;18.40;81.40;;;;;;6208310;23;20012;-69
2024/04/08 15:44:46;;;;;;;13.88;9.00;;;18.30;81.10;;;;;;6241689;23;20031;-69
2024/04/08 15:47:11;;;;;;;10.32;8.25;;;18.40;81.40;;;;;;6213051;23;20116;-70
2024/04/08 15:49:37;;;;;;;13.98;8.02;;;18.30;80.60;;;;;;6213790;23;20051;-70
2024/04/08 15:52:02;;;;;;;16.10;8.63;;;18.30;81.10;;;;;;6207628;23;20048;-69
2024/04/08 15:54:28;;;;;;;16.23;8.25;;;18.50;81.20;;;;;;6210712;23;20027;-70
2024/04/08 15:56:54;;;;;;;13.32;8.02;;;18.40;80.60;;;;;;6212555;23;20016;-70
2024/04/08 15:59:20;;;;;;;16.20;9.02;;;18.40;81.10;;;;;;6211801;23;20020;-70
2024/04/08 16:01:45;;;;;;;15.98;8.25;;;18.40;81.20;;;;;;6213276;23;20452;-69
2024/04/08 16:04:11;;;;;;;12.82;8.48;;;18.40;81.20;;;;;;6213822;23;20055;-69
2024/04/08 16:06:37;;;;;;;11.00;7.60;;;18.20;80.80;;;;;;6213620;23;20016;-69
2024/04/08 16:09:08;;;;;;;13.57;8.18;;;18.10;80.80;;;;;;6213203;23;20020;-70
2024/04/08 16:11:34;;;;;;;14.27;8.48;;;18.00;80.90;;;;;;6214211;23;20038;-69
2024/04/08 16:13:59;;;;;;;14.23;8.38;;;17.90;81.10;;;;;;6213906;23;20441;-70
2024/04/08 16:16:25;;;;;;;15.38;8.27;;;18.00;81.30;;;;;;6214277;23;20031;-70
2024/04/08 16:18:52;;;;;;;14.35;7.82;;;17.90;81.10;;;;;;6211696;23;20047;-69
2024/04/08 16:21:22;;;;;;;13.02;8.50;;;17.90;81.60;;;;;;6186404;23;20070;-69
2024/04/08 16:23:48;;;;;;;13.82;8.60;;;17.90;81.60;;;;;;6214380;23;20024;-71
2024/04/08 16:26:13;;;;;;;15.77;8.65;;;17.90;81.40;;;;;;6240102;23;20197;-71
2024/04/08 16:28:39;;;;;;;14.20;8.98;;;17.90;81.30;;;;;;6189818;23;20020;-71
2024/04/08 16:31:07;;;;;;;13.32;8.18;;;17.80;81.40;;;;;;6214966;23;20020;-73
2024/04/08 16:33:33;;;;;;;13.23;8.15;;;17.80;81.20;;;;;;6214532;23;20024;-72
2024/04/08 16:36:08;;;;;;;15.90;7.93;;;17.80;81.20;;;;;;6213848;23;20345;-73
2024/04/08 16:38:35;;;;;;;11.43;7.65;;;17.80;81.30;;;;;;6214265;23;20078;-73
2024/04/08 16:41:01;;;;;;;18.52;9.07;;;17.80;81.30;;;;;;6214443;23;20388;-75
2024/04/08 16:43:28;;;;;;;12.75;7.78;;;17.80;81.10;;;;;;6239563;23;20085;-76
2024/04/08 16:45:58;;;;;;;14.75;8.05;;;17.70;81.10;;;;;;6213635;23;20016;-75
2024/04/08 16:48:26;;;;;;;15.82;7.88;;;17.70;81.40;;;;;;6189079;23;20028;-77
2024/04/08 16:50:57;;;;;;;13.48;8.48;;;17.70;81.50;;;;;;6213670;23;20511;-77
2024/04/08 16:53:26;;;;;;;13.00;7.70;;;17.60;81.10;;;;;;6241429;23;20087;-77
2024/04/08 16:56:03;;;;;;;15.25;8.07;;;17.50;81.20;;;;;;6215663;23;20365;-77
2024/04/08 16:58:29;;;;;;;15.70;7.47;;;17.40;81.00;;;;;;6240739;23;20341;-77
2024/04/08 17:00:56;;;;;;;13.68;7.90;;;17.40;81.40;;;;;;6214698;23;20032;-78
2024/04/08 17:03:27;;;;;;;15.52;7.45;;;17.40;81.30;;;;;;6241805;23;20453;-77
2024/04/08 17:06:15;;;;;;;14.18;8.00;;;17.50;81.50;;;;;;6238572;23;20425;-77
2024/04/08 17:10:00;;;;;;;13.15;7.32;;;17.50;81.40;;;;;;6189069;23;20515;-77
2024/04/08 17:13:37;;;;;;;;;;;;;;;;;;;;;
2024/04/08 22:15:09;;;;;;;25.38;16.35;;;14.50;85.90;;;;;;6283752;22;20026;-76
2024/04/08 22:18:22;;;;;;;22.23;15.30;;;14.50;85.80;;;;;;6213222;23;20051;-76
2024/04/08 22:21:48;;;;;;;21.98;17.35;;;14.50;85.70;;;;;;6188690;23;20392;-75
2024/04/08 22:28:25;;;;;;;19.77;15.77;;;14.60;85.70;;;;;;6208987;23;20020;-75
2024/04/08 22:30:50;;;;;;;21.75;16.42;;;14.60;85.70;;;;;;6214783;23;20013;-75
2024/04/08 22:33:16;;;;;;;20.13;16.17;;;14.60;85.70;;;;;;6164726;23;20061;-74
2024/04/08 22:35:42;;;;;;;19.15;14.75;;;14.60;85.80;;;;;;6215450;23;20028;-75
2024/04/08 22:38:08;;;;;;;22.52;15.57;;;14.60;85.80;;;;;;6215290;23;20327;-74
2024/04/08 22:40:33;;;;;;;25.75;15.95;;;14.60;85.80;;;;;;6190288;23;20043;-76
2024/04/08 22:42:59;;;;;;;19.15;15.00;;;14.70;85.90;;;;;;6215467;23;20021;-76
2024/04/08 22:45:25;;;;;;;20.15;15.35;;;14.70;85.90;;;;;;6215480;23;20025;-74
2024/04/08 22:47:51;;;;;;;17.70;14.68;;;14.70;85.90;;;;;;6215571;23;20390;-75
2024/04/08 22:50:16;;;;;;;22.65;15.35;;;14.70;85.90;;;;;;6190438;23;20012;-74
2024/04/08 22:52:43;;;;;;;22.95;15.85;;;14.70;85.90;;;;;;6216991;23;20059;-75
2024/04/08 22:55:10;;;;;;;20.88;15.32;;;14.70;85.80;;;;;;6217228;23;20406;-73
2024/04/08 22:57:42;;;;;;;24.73;15.13;;;14.70;85.90;;;;;;6190003;23;20056;-75
2024/04/08 23:00:12;;;;;;;26.00;14.98;;;14.70;85.90;;;;;;6215210;23;20082;-74
2024/04/08 23:02:37;;;;;;;20.10;14.50;;;14.70;85.90;;;;;;6215213;23;20155;-75
2024/04/08 23:05:04;;;;;;;20.25;14.75;;;14.80;85.90;;;;;;6190105;23;20453;-75
2024/04/08 23:07:30;;;;;;;24.45;14.05;;;14.80;85.90;;;;;;6216816;23;20104;-74
2024/04/08 23:09:55;;;;;;;20.70;14.20;;;14.70;85.90;;;;;;6190177;23;20094;-73
2024/04/08 23:12:21;;;;;;;21.98;14.50;;;14.70;85.90;;;;;;6215577;23;20429;-76
2024/04/08 23:14:47;;;;;;;17.40;13.60;;;14.30;85.70;;;;;;6216940;23;20013;-75
2024/04/08 23:17:13;;;;;;;22.83;15.13;;;14.70;85.90;;;;;;6189344;23;20032;-75
2024/04/08 23:19:38;;;;;;;22.30;14.93;;;14.80;86.00;;;;;;6216772;23;20549;-74
2024/04/08 23:22:04;;;;;;;19.25;15.15;;;14.80;86.00;;;;;;6215567;23;20013;-75
2024/04/08 23:24:30;;;;;;;20.08;14.93;;;14.80;86.00;;;;;;6189935;23;20021;-75
2024/04/08 23:26:55;;;;;;;22.27;13.95;;;14.80;86.00;;;;;;6215137;23;20099;-74
2024/04/08 23:29:21;;;;;;;19.38;14.20;;;14.80;86.00;;;;;;6190147;23;20009;-75
2024/04/08 23:31:46;;;;;;;21.75;15.32;;;14.80;86.00;;;;;;6190182;23;20511;-75
2024/04/08 23:34:12;;;;;;;22.52;15.05;;;14.80;85.90;;;;;;6190501;23;20020;-74
2024/04/08 23:36:39;;;;;;;20.70;14.45;;;14.80;85.90;;;;;;6165932;23;20024;-75
2024/04/08 23:39:05;;;;;;;22.42;14.70;;;14.80;85.90;;;;;;6215238;23;20024;-74
2024/04/08 23:41:31;;;;;;;22.88;15.02;;;14.80;85.90;;;;;;6190268;23;20017;-74
2024/04/08 23:43:57;;;;;;;19.33;15.23;;;14.80;85.90;;;;;;6215000;23;20441;-74
2024/04/08 23:46:23;;;;;;;20.83;15.65;;;14.80;85.90;;;;;;6216446;23;20024;-74
2024/04/08 23:48:49;;;;;;;22.98;15.70;;;14.80;85.90;;;;;;6189884;23;20344;-74
2024/04/08 23:51:15;;;;;;;27.00;15.25;;;14.80;85.90;;;;;;6215054;23;20341;-74
2024/04/08 23:53:40;;;;;;;20.75;16.42;;;14.80;85.90;;;;;;6214975;23;20088;-76
2024/04/08 23:56:06;;;;;;;23.63;16.77;;;14.80;85.90;;;;;;6190164;23;20507;-74
2024/04/08 23:58:32;;;;;;;27.05;15.77;;;14.80;86.00;;;;;;6189887;23;20027;-73
